Time;durP1;ratioP1;P1;durP2;ratioP2;P2;SDS_P1;SDS_P2;PMS_P1;PMS_P2;Temp;Humidity;BMP_temperature;BMP_pressure;BME280_temperature;BME280_humidity;BME280_pressure;Samples;Min_cycle;Max_cycle;Signal;HPM_P1;HPM_P2
2021/12/08 00:00:55;;;;;;;14.73;7.25;;;4.10;99.90;;;;;;4988896;23;20015;-75
2021/12/08 00:02:58;;;;;;;7.40;4.70;;;4.20;99.90;;;;;;4991090;23;20018;-76
2021/12/08 00:04:58;;;;;;;12.48;8.20;;;4.20;99.90;;;;;;4990627;23;20106;-76
2021/12/08 00:06:59;;;;;;;14.35;7.35;;;4.20;99.90;;;;;;5012913;23;20026;-76
2021/12/08 00:09:05;;;;;;;18.38;7.28;;;4.10;99.90;;;;;;4988934;23;20023;-75
2021/12/08 00:13:27;;;;;;;17.08;7.78;;;4.10;99.90;;;;;;4989689;23;20015;-75
2021/12/08 00:15:27;;;;;;;14.57;8.32;;;4.10;99.90;;;;;;4989819;23;20051;-75
2021/12/08 00:17:28;;;;;;;10.25;6.50;;;4.10;99.90;;;;;;4989335;23;20019;-75
2021/12/08 00:19:29;;;;;;;14.73;7.07;;;4.20;99.90;;;;;;4990503;23;20027;-74
2021/12/08 00:21:30;;;;;;;16.05;8.73;;;4.20;99.90;;;;;;4988377;23;20016;-75
2021/12/08 00:23:30;;;;;;;12.43;7.25;;;4.20;99.90;;;;;;4990185;23;20034;-75
2021/12/08 00:25:33;;;;;;;23.02;8.68;;;4.20;99.90;;;;;;4990019;23;20022;-75
2021/12/08 00:27:33;;;;;;;16.48;7.63;;;4.20;99.90;;;;;;4989685;23;20054;-75
2021/12/08 00:29:34;;;;;;;14.18;7.45;;;4.20;99.90;;;;;;4989804;23;20047;-75
2021/12/08 00:31:34;;;;;;;14.77;6.30;;;4.20;99.90;;;;;;4990502;23;20026;-75
2021/12/08 00:33:36;;;;;;;14.60;7.97;;;4.20;99.90;;;;;;4989794;23;20057;-74
2021/12/08 00:35:38;;;;;;;16.10;7.75;;;4.20;99.90;;;;;;4990920;23;20390;-74
2021/12/08 00:37:40;;;;;;;11.85;7.10;;;4.30;99.90;;;;;;5012526;23;20075;-75
2021/12/08 00:39:41;;;;;;;17.05;8.40;;;4.30;99.90;;;;;;4989800;23;20026;-75
2021/12/08 00:41:41;;;;;;;11.35;7.32;;;4.30;99.90;;;;;;4988396;23;20023;-74
2021/12/08 00:43:42;;;;;;;12.90;7.35;;;4.30;99.90;;;;;;4988793;23;20364;-75
2021/12/08 00:45:43;;;;;;;12.68;7.63;;;4.30;99.90;;;;;;4988808;23;20618;-75
2021/12/08 00:47:46;;;;;;;11.38;7.90;;;4.30;99.90;;;;;;5010482;23;20121;-75
2021/12/08 00:49:47;;;;;;;15.23;7.32;;;4.40;99.90;;;;;;5011005;23;20023;-75
2021/12/08 00:51:47;;;;;;;15.48;6.78;;;4.40;99.90;;;;;;4988801;23;20027;-75
2021/12/08 00:53:48;;;;;;;11.27;6.90;;;4.40;99.90;;;;;;5009961;23;20459;-74
2021/12/08 00:55:49;;;;;;;14.82;7.43;;;4.40;99.90;;;;;;4989401;23;20066;-74
2021/12/08 00:57:50;;;;;;;12.35;8.23;;;4.40;99.90;;;;;;4989816;23;20114;-75
2021/12/08 00:59:51;;;;;;;15.00;8.00;;;4.40;99.90;;;;;;5010697;23;20087;-74
2021/12/08 01:01:52;;;;;;;15.23;7.78;;;4.40;99.90;;;;;;4989945;23;20731;-74
2021/12/08 01:03:52;;;;;;;11.75;6.47;;;4.40;99.90;;;;;;4988074;23;20015;-75
2021/12/08 01:05:56;;;;;;;14.30;7.50;;;4.40;99.90;;;;;;4986734;23;20526;-74
2021/12/08 01:07:57;;;;;;;15.02;7.10;;;4.50;99.90;;;;;;4986155;23;20019;-74
2021/12/08 01:09:58;;;;;;;9.63;6.80;;;4.60;99.90;;;;;;5009099;23;20395;-76
2021/12/08 01:12:02;;;;;;;10.77;6.70;;;4.60;99.90;;;;;;4986952;23;20324;-75
2021/12/08 01:14:03;;;;;;;10.43;6.55;;;4.60;99.90;;;;;;4988073;23;20015;-76
2021/12/08 01:16:04;;;;;;;8.77;5.18;;;4.60;99.90;;;;;;4988000;23;20026;-76
2021/12/08 01:18:05;;;;;;;9.55;5.55;;;4.70;99.90;;;;;;4990156;23;20066;-75
2021/12/08 01:20:10;;;;;;;14.75;6.30;;;4.80;99.90;;;;;;4990105;23;20022;-75
2021/12/08 01:22:10;;;;;;;12.13;6.63;;;4.90;99.90;;;;;;4990440;23;20020;-77
2021/12/08 01:24:11;;;;;;;10.68;6.18;;;4.90;99.90;;;;;;4989801;23;20015;-75
2021/12/08 01:26:12;;;;;;;13.30;6.68;;;4.80;99.90;;;;;;4990334;23;20018;-75
2021/12/08 01:28:12;;;;;;;9.45;6.60;;;4.80;99.90;;;;;;5011881;23;20015;-75
2021/12/08 01:30:13;;;;;;;9.60;6.95;;;4.80;99.90;;;;;;4990505;23;20026;-75
2021/12/08 01:32:14;;;;;;;11.68;7.18;;;4.90;99.90;;;;;;4988872;23;20109;-75
2021/12/08 01:34:15;;;;;;;7.18;5.25;;;4.90;99.90;;;;;;4990489;23;20118;-74
2021/12/08 01:36:16;;;;;;;8.82;6.05;;;4.90;99.90;;;;;;4990371;23;20015;-74
2021/12/08 01:38:17;;;;;;;14.60;7.15;;;5.00;99.90;;;;;;5011786;23;20019;-75
2021/12/08 01:40:18;;;;;;;10.63;7.50;;;5.00;99.90;;;;;;4990256;23;20043;-74
2021/12/08 01:42:28;;;;;;;8.07;5.60;;;5.00;99.90;;;;;;4990274;23;20038;-74
2021/12/08 01:46:48;;;;;;;12.68;6.47;;;5.10;99.90;;;;;;4989673;23;20106;-74
2021/12/08 01:48:48;;;;;;;9.25;7.00;;;5.20;99.90;;;;;;5011584;23;20023;-74
2021/12/08 01:50:55;;;;;;;7.57;6.60;;;5.20;99.90;;;;;;4988406;23;20023;-74
2021/12/08 01:52:56;;;;;;;7.03;5.85;;;5.30;99.90;;;;;;5013834;23;20196;-75
2021/12/08 01:54:57;;;;;;;11.50;6.35;;;5.30;99.90;;;;;;4991407;23;20015;-75
2021/12/08 01:57:00;;;;;;;9.73;7.50;;;5.30;99.90;;;;;;4991680;23;20019;-74
2021/12/08 01:59:04;;;;;;;14.68;7.25;;;5.40;99.90;;;;;;5013177;23;20107;-75
2021/12/08 02:01:08;;;;;;;5.45;4.43;;;5.40;99.90;;;;;;4990808;23;20072;-74
2021/12/08 02:03:08;;;;;;;;;;;5.40;99.90;;;;;;4991989;23;20011;-74
2021/12/08 02:05:09;;;;;;;12.77;6.72;;;5.50;99.90;;;;;;4991259;23;19916;-74
2021/12/08 02:07:10;;;;;;;11.50;6.00;;;5.50;99.90;;;;;;4991917;23;20569;-74
2021/12/08 02:09:15;;;;;;;8.93;7.10;;;5.50;99.90;;;;;;4991292;23;20011;-74
2021/12/08 02:11:15;;;;;;;10.38;7.88;;;5.50;99.90;;;;;;4991644;23;20046;-75
2021/12/08 02:13:17;;;;;;;8.07;6.30;;;5.40;99.90;;;;;;4990790;23;20020;-74
2021/12/08 02:15:20;;;;;;;14.90;7.40;;;5.40;99.90;;;;;;4991448;23;20351;-74
2021/12/08 02:17:20;;;;;;;12.10;6.28;;;5.40;99.90;;;;;;4990974;23;20034;-75
2021/12/08 02:19:22;;;;;;;16.75;7.40;;;5.40;99.90;;;;;;4991343;23;20523;-75
2021/12/08 02:21:52;;;;;;;8.60;6.75;;;5.40;99.90;;;;;;4989779;23;20019;-75
2021/12/08 02:23:55;;;;;;;9.40;7.07;;;5.40;99.90;;;;;;4988999;23;20023;-75
2021/12/08 02:25:56;;;;;;;14.25;6.63;;;5.40;99.90;;;;;;4991361;23;20042;-74
2021/12/08 02:27:58;;;;;;;11.10;8.05;;;5.40;99.90;;;;;;4991588;23;20016;-74
2021/12/08 02:30:10;;;;;;;16.13;7.57;;;5.40;99.90;;;;;;5012298;23;20022;-75
2021/12/08 02:32:30;;;;;;;9.30;6.57;;;5.40;99.90;;;;;;4991383;23;20019;-75
2021/12/08 02:48:28;;;;;;;14.60;8.68;;;5.30;99.90;;;;;;4990756;23;20735;-75
2021/12/08 02:50:32;;;;;;;14.95;8.68;;;5.20;99.90;;;;;;4991884;23;20016;-74
2021/12/08 02:52:33;;;;;;;17.50;8.75;;;5.10;99.90;;;;;;4990851;23;20023;-74
2021/12/08 02:54:37;;;;;;;17.58;9.70;;;5.10;99.90;;;;;;4991846;23;20029;-75
2021/12/08 02:56:37;;;;;;;15.00;8.60;;;5.00;99.90;;;;;;5013096;23;20356;-74
2021/12/08 02:58:38;;;;;;;12.23;7.82;;;5.00;99.90;;;;;;4991735;23;20020;-75
2021/12/08 03:00:48;;;;;;;16.92;9.63;;;5.10;99.90;;;;;;4990717;23;20019;-74
2021/12/08 03:02:48;;;;;;;13.30;8.45;;;5.20;99.90;;;;;;5013192;23;20094;-74
2021/12/08 03:04:49;;;;;;;16.58;6.90;;;5.20;99.90;;;;;;4990968;23;20348;-75
2021/12/08 03:06:50;;;;;;;8.90;5.80;;;5.20;99.90;;;;;;4991313;23;20015;-75
2021/12/08 03:08:50;;;;;;;14.07;6.72;;;5.20;99.90;;;;;;4990981;23;20690;-75
2021/12/08 03:10:52;;;;;;;9.75;7.43;;;5.20;99.90;;;;;;4991563;23;20025;-75
2021/12/08 03:12:54;;;;;;;16.48;6.57;;;5.30;99.90;;;;;;4989078;23;20047;-75
2021/12/08 03:14:55;;;;;;;14.20;6.40;;;5.30;99.90;;;;;;5012665;23;20049;-75
2021/12/08 03:16:59;;;;;;;14.15;6.50;;;5.40;99.90;;;;;;4987394;23;20491;-75
2021/12/08 03:19:00;;;;;;;19.10;6.72;;;5.40;99.90;;;;;;5002217;23;20019;-74
2021/12/08 03:21:04;;;;;;;11.27;6.25;;;5.50;99.90;;;;;;4991177;23;20015;-74
2021/12/08 03:23:11;;;;;;;11.52;6.38;;;5.50;99.90;;;;;;4990424;23;20071;-75
2021/12/08 03:25:17;;;;;;;9.40;5.18;;;5.60;99.90;;;;;;4991058;23;20015;-76
2021/12/08 03:27:22;;;;;;;9.98;5.95;;;5.70;99.90;;;;;;4990833;23;20015;-74
2021/12/08 03:29:39;;;;;;;14.13;6.13;;;5.80;99.90;;;;;;4991247;23;20090;-75
2021/12/08 03:31:43;;;;;;;6.82;4.60;;;5.80;99.90;;;;;;4990638;23;20103;-74
2021/12/08 03:33:44;;;;;;;;;;;5.80;99.90;;;;;;4991542;23;20015;-74
2021/12/08 03:35:45;;;;;;;10.93;4.53;;;5.90;99.90;;;;;;4991103;23;20637;-75
2021/12/08 03:37:47;;;;;;;11.88;5.20;;;6.00;99.90;;;;;;4991279;23;20015;-75
2021/12/08 03:39:49;;;;;;;13.55;5.18;;;6.00;99.90;;;;;;4990542;23;20019;-75
2021/12/08 03:41:50;;;;;;;9.35;4.53;;;5.90;99.90;;;;;;4989491;23;20050;-75
2021/12/08 03:43:51;;;;;;;13.80;5.78;;;5.80;99.90;;;;;;4990501;23;20027;-75
2021/12/08 03:45:54;;;;;;;9.27;4.78;;;5.80;99.90;;;;;;4990480;23;20020;-75
2021/12/08 03:48:01;;;;;;;10.02;5.50;;;5.80;99.90;;;;;;4991153;23;20030;-74
2021/12/08 03:50:05;;;;;;;14.82;7.25;;;5.80;99.90;;;;;;4990844;23;20015;-75
2021/12/08 03:52:06;;;;;;;11.45;4.90;;;5.80;99.90;;;;;;4990965;23;20011;-75
2021/12/08 03:54:07;;;;;;;12.18;4.93;;;5.70;99.90;;;;;;4990523;23;20027;-73
2021/12/08 03:56:08;;;;;;;11.15;6.40;;;5.80;99.90;;;;;;5012903;23;20023;-75
2021/12/08 03:58:10;;;;;;;14.95;6.28;;;5.80;99.90;;;;;;4990682;23;20090;-76
2021/12/08 04:00:14;;;;;;;9.50;4.82;;;5.90;99.90;;;;;;4990887;23;20024;-76
2021/12/08 04:02:15;;;;;;;10.40;5.65;;;6.00;99.90;;;;;;4990842;23;20365;-74
2021/12/08 04:04:16;;;;;;;16.48;6.72;;;6.00;99.90;;;;;;4990770;23;20055;-75
2021/12/08 04:06:34;;;;;;;11.18;6.05;;;6.00;99.90;;;;;;5012680;23;20443;-76
2021/12/08 04:08:53;;;;;;;10.27;5.60;;;6.00;99.90;;;;;;4990992;23;20348;-75
2021/12/08 04:10:55;;;;;;;9.43;5.25;;;6.00;99.90;;;;;;4990794;23;20023;-75
2021/12/08 04:12:56;;;;;;;16.00;5.43;;;6.10;99.90;;;;;;5012605;23;20023;-75
2021/12/08 04:15:00;;;;;;;8.65;5.72;;;6.10;99.90;;;;;;4990846;23;20078;-75
2021/12/08 04:17:17;;;;;;;15.32;5.47;;;6.10;99.90;;;;;;4990458;23;20022;-75
2021/12/08 04:19:18;;;;;;;12.98;5.18;;;6.10;99.90;;;;;;4990563;23;20461;-75
2021/12/08 04:21:19;;;;;;;15.63;4.97;;;6.00;99.90;;;;;;4990990;23;20145;-75
2021/12/08 04:23:23;;;;;;;7.03;5.03;;;6.00;99.90;;;;;;4990831;23;20019;-75
2021/12/08 04:25:27;;;;;;;11.63;4.75;;;5.90;99.90;;;;;;4990308;23;20011;-75
2021/12/08 04:27:32;;;;;;;9.25;4.55;;;6.00;99.90;;;;;;4988913;23;20015;-75
2021/12/08 04:29:36;;;;;;;11.55;4.90;;;5.90;99.90;;;;;;4990918;23;20054;-74
2021/12/08 04:31:37;;;;;;;8.93;4.80;;;5.80;99.90;;;;;;4989970;23;20008;-75
2021/12/08 04:33:39;;;;;;;8.00;4.88;;;5.90;99.90;;;;;;4990174;23;20011;-74
2021/12/08 04:35:42;;;;;;;11.48;5.38;;;5.80;99.90;;;;;;4991051;23;20015;-74
2021/12/08 04:37:47;;;;;;;7.50;4.95;;;5.80;99.90;;;;;;4990101;23;20082;-74
2021/12/08 04:40:14;;;;;;;9.48;4.75;;;5.80;99.90;;;;;;4990581;23;20078;-74
2021/12/08 04:42:19;;;;;;;7.28;4.10;;;5.70;99.90;;;;;;4990182;23;20094;-75
2021/12/08 04:44:28;;;;;;;10.10;4.80;;;5.60;99.90;;;;;;4990109;23;20074;-75
2021/12/08 04:49:04;;;;;;;11.73;4.35;;;5.70;99.90;;;;;;4989688;23;20158;-74
2021/12/08 04:53:33;;;;;;;11.13;4.95;;;5.80;99.90;;;;;;4990359;23;20430;-74
2021/12/08 05:07:01;;;;;;;11.50;4.82;;;5.60;99.90;;;;;;4992055;23;19914;-75
2021/12/08 05:09:08;;;;;;;9.52;3.20;;;5.50;99.90;;;;;;4989723;23;20071;-75
2021/12/08 05:11:19;;;;;;;9.70;3.92;;;5.50;99.90;;;;;;5012194;23;20090;-75
2021/12/08 05:13:20;;;;;;;8.05;4.22;;;5.40;99.90;;;;;;4990140;23;21220;-74
2021/12/08 05:15:24;;;;;;;4.85;3.28;;;5.40;99.90;;;;;;4989979;23;20440;-74
2021/12/08 05:17:31;;;;;;;15.77;3.90;;;5.40;99.90;;;;;;4990563;23;20015;-75
2021/12/08 05:19:34;;;;;;;10.10;4.00;;;5.30;99.90;;;;;;4989320;23;20027;-75
2021/12/08 05:21:41;;;;;;;8.32;3.53;;;5.30;99.90;;;;;;4989860;23;20447;-74
2021/12/08 05:23:43;;;;;;;8.20;3.25;;;5.40;99.90;;;;;;4989192;23;20019;-74
2021/12/08 05:25:46;;;;;;;13.02;4.50;;;5.40;99.90;;;;;;5013775;23;20352;-75
2021/12/08 05:27:50;;;;;;;9.00;4.15;;;5.40;99.90;;;;;;4990150;23;20019;-75
2021/12/08 05:30:16;;;;;;;8.90;3.85;;;5.40;99.90;;;;;;4992041;23;20015;-75
2021/12/08 05:32:18;;;;;;;10.07;3.83;;;5.40;99.90;;;;;;4990043;23;20051;-74
2021/12/08 05:34:20;;;;;;;7.05;3.47;;;5.30;99.90;;;;;;4992404;23;20047;-74
2021/12/08 05:36:21;;;;;;;11.50;3.72;;;5.20;99.90;;;;;;4991850;23;20011;-75
2021/12/08 05:38:22;;;;;;;9.00;3.53;;;5.10;99.90;;;;;;4992071;23;20047;-76
2021/12/08 05:40:52;;;;;;;10.13;3.67;;;5.10;99.90;;;;;;4992061;23;20365;-76
2021/12/08 05:42:52;;;;;;;5.95;3.33;;;5.20;99.90;;;;;;4985982;23;20031;-75
2021/12/08 05:44:54;;;;;;;8.68;3.58;;;5.20;99.90;;;;;;4991725;23;20082;-75
2021/12/08 05:47:00;;;;;;;3.95;3.05;;;5.20;99.90;;;;;;4990935;23;20050;-75
2021/12/08 05:49:01;;;;;;;6.05;3.45;;;5.20;99.90;;;;;;5014169;23;20007;-75
2021/12/08 05:51:07;;;;;;;5.68;3.10;;;5.30;99.90;;;;;;4989157;23;20103;-75
2021/12/08 05:53:08;;;;;;;10.68;4.32;;;5.30;99.90;;;;;;5014011;23;20082;-75
2021/12/08 05:55:08;;;;;;;12.55;3.20;;;5.30;99.90;;;;;;4989647;23;20441;-77
2021/12/08 05:57:14;;;;;;;10.75;4.78;;;5.20;99.90;;;;;;4990796;23;20025;-75
2021/12/08 05:59:16;;;;;;;7.68;3.30;;;5.10;99.90;;;;;;4991246;23;20054;-75
2021/12/08 06:01:33;;;;;;;12.60;4.45;;;5.10;99.90;;;;;;4992487;23;20012;-75
2021/12/08 06:03:34;;;;;;;11.50;4.85;;;5.00;99.90;;;;;;4991515;23;20018;-75
2021/12/08 06:05:35;;;;;;;7.50;3.60;;;5.00;99.90;;;;;;4992075;23;20440;-75
2021/12/08 06:07:35;;;;;;;9.80;3.30;;;5.00;99.90;;;;;;4991649;23;20022;-76
2021/12/08 06:09:38;;;;;;;9.80;3.40;;;4.90;99.90;;;;;;4992159;23;20019;-75
2021/12/08 06:11:39;;;;;;;12.85;3.58;;;4.90;99.90;;;;;;4991772;23;20647;-75
2021/12/08 06:13:40;;;;;;;5.95;2.95;;;5.00;99.90;;;;;;5013753;23;20015;-75
2021/12/08 06:15:44;;;;;;;7.38;3.60;;;5.00;99.90;;;;;;4991653;23;20031;-75
2021/12/08 06:17:45;;;;;;;9.05;3.13;;;4.90;99.90;;;;;;4991292;23;20019;-75
2021/12/08 06:19:47;;;;;;;7.90;4.20;;;4.80;99.90;;;;;;4991886;23;20452;-77
2021/12/08 06:21:49;;;;;;;9.43;3.17;;;4.80;99.90;;;;;;4989368;23;20026;-75
2021/12/08 06:23:51;;;;;;;10.38;3.85;;;4.80;99.90;;;;;;4992150;23;20019;-75
2021/12/08 06:25:52;;;;;;;10.02;3.15;;;4.70;99.90;;;;;;5013453;23;20030;-76
2021/12/08 06:27:53;;;;;;;10.77;3.60;;;4.60;99.90;;;;;;4991820;23;20023;-77
2021/12/08 06:29:53;;;;;;;11.40;3.78;;;4.60;99.90;;;;;;4991602;23;20026;-76
2021/12/08 06:31:58;;;;;;;13.95;3.67;;;4.70;99.90;;;;;;4992005;23;20019;-75
2021/12/08 06:33:59;;;;;;;8.68;3.60;;;4.70;99.90;;;;;;4989744;23;20019;-76
2021/12/08 06:36:25;;;;;;;11.43;3.70;;;4.60;99.90;;;;;;5013765;23;20026;-75
2021/12/08 06:38:26;;;;;;;10.20;3.67;;;4.60;99.90;;;;;;4978918;23;20110;-76
2021/12/08 06:40:34;;;;;;;8.00;4.32;;;4.50;99.90;;;;;;4991282;23;20090;-74
2021/12/08 06:42:38;;;;;;;11.48;4.50;;;4.50;99.90;;;;;;4991427;23;20008;-76
2021/12/08 06:44:42;;;;;;;9.20;5.15;;;4.40;99.90;;;;;;4991045;23;20733;-76
2021/12/08 06:46:43;;;;;;;12.23;4.53;;;4.30;99.90;;;;;;5013374;23;20034;-75
2021/12/08 06:48:49;;;;;;;10.48;3.63;;;4.30;99.90;;;;;;4991368;23;20082;-76
2021/12/08 06:51:07;;;;;;;8.10;3.55;;;4.30;99.90;;;;;;4991231;23;20053;-75
2021/12/08 06:53:08;;;;;;;12.35;3.83;;;4.40;99.90;;;;;;4988909;23;20341;-76
2021/12/08 06:55:20;;;;;;;11.10;4.40;;;4.40;99.90;;;;;;4991591;23;20087;-75
2021/12/08 06:57:32;;;;;;;11.80;4.23;;;4.40;99.90;;;;;;5012559;23;20026;-76
2021/12/08 06:59:40;;;;;;;7.30;3.92;;;4.40;99.90;;;;;;4989540;23;20278;-77
2021/12/08 07:01:54;;;;;;;12.23;3.83;;;4.40;99.90;;;;;;4991118;23;20104;-76
2021/12/08 07:04:29;;;;;;;17.45;3.80;;;4.40;99.90;;;;;;4991510;23;20479;-76
2021/12/08 07:08:48;;;;;;;9.63;4.10;;;4.30;99.90;;;;;;4991323;23;20019;-75
2021/12/08 07:10:52;;;;;;;11.30;6.15;;;4.30;99.90;;;;;;5013863;23;20042;-77
2021/12/08 07:13:06;;;;;;;15.43;4.72;;;4.20;99.90;;;;;;4990593;23;20086;-76
2021/12/08 07:15:21;;;;;;;14.32;5.32;;;4.30;99.90;;;;;;4990968;23;20646;-77
2021/12/08 07:17:27;;;;;;;11.68;5.28;;;4.30;99.90;;;;;;4990848;23;20015;-75
2021/12/08 07:19:35;;;;;;;10.23;4.32;;;4.40;99.90;;;;;;4991193;23;20023;-75
2021/12/08 07:21:43;;;;;;;12.52;3.85;;;4.40;99.90;;;;;;4991272;23;20102;-75
2021/12/08 07:23:49;;;;;;;11.00;3.17;;;4.40;99.90;;;;;;4990018;23;20028;-78
2021/12/08 07:25:53;;;;;;;13.75;3.75;;;4.40;99.90;;;;;;4990622;23;20034;-74
2021/12/08 07:27:54;;;;;;;13.00;4.40;;;4.40;99.90;;;;;;4991420;23;20100;-76
2021/12/08 07:29:59;;;;;;;10.98;4.05;;;4.40;99.90;;;;;;4991274;23;20026;-75
2021/12/08 07:32:10;;;;;;;12.98;4.35;;;4.30;99.90;;;;;;4989466;23;20102;-75
2021/12/08 07:34:17;;;;;;;17.58;5.32;;;4.30;99.90;;;;;;4991418;23;20094;-75
2021/12/08 07:36:19;;;;;;;12.80;3.92;;;4.30;99.90;;;;;;5012785;23;20042;-75
2021/12/08 07:38:24;;;;;;;12.73;3.92;;;4.40;99.90;;;;;;4990849;23;20055;-75
2021/12/08 07:40:32;;;;;;;10.45;4.07;;;4.50;99.90;;;;;;5012945;23;20011;-75
2021/12/08 07:42:44;;;;;;;12.63;3.75;;;4.50;99.90;;;;;;4989196;23;20019;-75
2021/12/08 07:44:52;;;;;;;11.32;4.68;;;4.60;99.90;;;;;;4990265;23;20027;-75
2021/12/08 07:47:07;;;;;;;12.65;3.78;;;4.70;99.90;;;;;;4986781;23;20019;-76
2021/12/08 07:49:13;;;;;;;14.73;4.43;;;4.90;99.90;;;;;;4989584;23;20075;-76
2021/12/08 07:51:23;;;;;;;12.20;4.38;;;5.00;99.90;;;;;;4990477;23;20038;-76
2021/12/08 07:53:26;;;;;;;9.85;3.25;;;5.00;99.90;;;;;;4990448;23;20373;-76
2021/12/08 07:55:34;;;;;;;8.13;3.35;;;4.90;99.90;;;;;;4991058;23;20026;-75
2021/12/08 07:57:36;;;;;;;14.93;3.83;;;4.80;99.90;;;;;;4989202;23;20031;-75
2021/12/08 07:59:41;;;;;;;14.68;5.40;;;4.70;99.90;;;;;;4984599;23;20049;-76
2021/12/08 08:01:45;;;;;;;10.75;3.10;;;4.60;99.90;;;;;;4987605;23;20019;-75
2021/12/08 08:03:47;;;;;;;15.80;4.20;;;4.60;99.90;;;;;;4988194;23;20015;-75
2021/12/08 08:05:51;;;;;;;14.93;4.72;;;4.70;99.90;;;;;;4990881;23;20074;-76
2021/12/08 08:07:51;;;;;;;7.90;3.53;;;4.60;99.90;;;;;;4990577;23;20047;-76
2021/12/08 08:10:01;;;;;;;20.77;4.50;;;4.60;99.90;;;;;;4990154;23;20731;-75
2021/12/08 08:12:05;;;;;;;11.35;3.75;;;4.50;99.90;;;;;;5012184;23;20564;-76
2021/12/08 08:14:06;;;;;;;8.52;3.67;;;4.50;99.90;;;;;;5012677;23;20021;-76
2021/12/08 08:16:13;;;;;;;11.88;4.28;;;4.50;99.90;;;;;;4990511;23;20043;-76
2021/12/08 08:18:19;;;;;;;7.22;3.35;;;4.60;99.90;;;;;;4990838;23;20076;-76
2021/12/08 08:20:34;;;;;;;10.00;3.60;;;4.50;99.90;;;;;;4990732;23;20019;-76
2021/12/08 08:22:35;;;;;;;12.32;5.40;;;4.40;99.90;;;;;;4990090;23;20011;-77
2021/12/08 08:24:36;;;;;;;16.77;4.82;;;4.40;99.90;;;;;;4989152;23;20011;-76
2021/12/08 08:26:40;;;;;;;7.20;3.42;;;4.40;99.90;;;;;;4987714;23;20050;-75
2021/12/08 08:28:46;;;;;;;12.55;3.85;;;4.40;99.90;;;;;;4990680;23;20360;-75
2021/12/08 08:30:53;;;;;;;9.18;3.50;;;4.50;99.90;;;;;;4989576;23;20022;-75
2021/12/08 08:32:56;;;;;;;10.70;3.42;;;4.50;99.90;;;;;;5011699;23;20053;-75
2021/12/08 08:35:08;;;;;;;21.27;4.32;;;4.50;99.90;;;;;;4990184;23;20019;-75
2021/12/08 08:37:12;;;;;;;9.05;3.80;;;4.40;99.90;;;;;;4987794;23;20015;-75
2021/12/08 08:39:20;;;;;;;14.57;3.35;;;4.40;99.90;;;;;;4988295;23;20022;-75
2021/12/08 08:41:43;;;;;;;12.32;3.90;;;4.40;99.90;;;;;;4989962;23;20011;-75
2021/12/08 08:43:44;;;;;;;11.20;4.37;;;4.50;99.90;;;;;;4990236;23;20410;-75
2021/12/08 08:46:00;;;;;;;7.72;3.63;;;4.50;99.90;;;;;;4989987;23;20046;-76
2021/12/08 08:48:09;;;;;;;7.25;3.15;;;4.40;99.90;;;;;;4990619;23;20035;-76
2021/12/08 08:50:15;;;;;;;10.80;4.20;;;4.30;99.90;;;;;;4988398;23;20348;-74
2021/12/08 08:52:31;;;;;;;7.05;3.63;;;4.40;99.90;;;;;;4989970;23;20011;-75
2021/12/08 08:54:35;;;;;;;12.68;3.22;;;4.50;99.90;;;;;;4989610;23;20472;-74
2021/12/08 08:56:41;;;;;;;11.18;3.67;;;4.50;99.90;;;;;;4989665;23;20158;-74
2021/12/08 08:58:46;;;;;;;10.30;3.78;;;4.50;99.90;;;;;;4989497;23;20512;-74
2021/12/08 09:00:49;;;;;;;13.10;4.05;;;4.60;99.90;;;;;;4990955;23;20423;-75
2021/12/08 09:02:50;;;;;;;;;;;4.70;99.90;;;;;;4990160;23;20094;-74
2021/12/08 09:04:56;;;;;;;7.10;3.47;;;4.70;99.90;;;;;;4990646;23;19910;-76
2021/12/08 09:07:02;;;;;;;8.93;4.20;;;4.60;99.90;;;;;;4990199;23;20023;-74
2021/12/08 09:09:07;;;;;;;11.82;3.72;;;4.70;99.90;;;;;;4990073;23;20023;-74
2021/12/08 09:11:16;;;;;;;13.20;4.40;;;4.60;99.90;;;;;;5012029;23;20321;-76
2021/12/08 09:13:21;;;;;;;15.40;5.03;;;4.70;99.90;;;;;;4989596;23;20026;-74
2021/12/08 09:15:37;;;;;;;7.57;3.47;;;4.70;99.90;;;;;;4989970;23;20011;-75
2021/12/08 09:18:10;;;;;;;8.40;2.72;;;4.70;99.90;;;;;;5012366;23;20023;-75
2021/12/08 09:20:14;;;;;;;5.63;3.37;;;4.80;99.90;;;;;;4989958;23;20396;-75
2021/12/08 09:22:21;;;;;;;9.25;4.40;;;4.80;99.90;;;;;;4990324;23;20094;-75
2021/12/08 09:24:31;;;;;;;11.07;3.63;;;4.80;99.90;;;;;;5012447;23;20018;-75
2021/12/08 09:26:35;;;;;;;5.65;3.85;;;4.80;99.90;;;;;;4990063;23;20019;-75
2021/12/08 09:28:44;;;;;;;11.43;4.22;;;4.90;99.90;;;;;;4989855;23;20039;-75
2021/12/08 09:30:51;;;;;;;10.65;4.20;;;4.90;99.90;;;;;;4990027;23;20023;-75
2021/12/08 09:33:00;;;;;;;12.68;4.50;;;5.00;99.90;;;;;;4986490;23;20071;-76
2021/12/08 09:35:10;;;;;;;8.82;4.13;;;5.20;99.90;;;;;;5011931;23;20022;-76
2021/12/08 09:37:17;;;;;;;8.07;3.75;;;5.30;99.90;;;;;;4989202;23;20439;-76
2021/12/08 09:39:24;;;;;;;11.98;4.35;;;5.30;99.90;;;;;;4989719;23;20011;-76
2021/12/08 09:41:41;;;;;;;11.90;4.53;;;5.30;99.90;;;;;;4988055;23;20078;-76
2021/12/08 09:43:52;;;;;;;8.02;3.88;;;5.30;99.90;;;;;;5011900;23;20022;-75
2021/12/08 09:45:57;;;;;;;9.30;3.70;;;5.30;99.90;;;;;;4989322;23;20011;-76
2021/12/08 09:48:02;;;;;;;10.48;3.75;;;5.40;99.90;;;;;;5011499;23;20011;-76
2021/12/08 09:50:06;;;;;;;10.02;4.53;;;5.40;99.90;;;;;;4987243;23;20067;-75
2021/12/08 09:52:08;;;;;;;13.93;5.65;;;5.40;99.90;;;;;;4986905;23;20090;-75
2021/12/08 09:54:10;;;;;;;10.35;3.47;;;5.40;99.90;;;;;;4989671;23;20019;-74
2021/12/08 09:56:12;;;;;;;6.28;3.50;;;5.40;99.90;;;;;;4989555;23;20317;-75
2021/12/08 09:58:13;;;;;;;12.55;4.32;;;5.50;99.90;;;;;;4989618;23;20015;-75
2021/12/08 10:00:22;;;;;;;9.43;3.95;;;5.60;99.90;;;;;;4989035;23;20057;-77
2021/12/08 10:02:37;;;;;;;8.73;3.78;;;5.60;99.90;;;;;;5011110;23;20093;-75
2021/12/08 10:04:37;;;;;;;10.65;4.30;;;5.50;99.90;;;;;;5011425;23;20213;-75
2021/12/08 10:06:40;;;;;;;10.52;3.85;;;5.50;99.90;;;;;;4989990;23;20019;-74
2021/12/08 10:08:43;;;;;;;4.65;3.00;;;5.60;99.90;;;;;;4987415;23;20054;-75
2021/12/08 10:10:47;;;;;;;4.00;2.90;;;5.60;99.90;;;;;;4989765;23;20373;-75
2021/12/08 10:12:49;;;;;;;9.23;3.55;;;5.70;99.90;;;;;;4989680;23;20327;-77
2021/12/08 10:14:50;;;;;;;7.93;3.70;;;5.70;99.90;;;;;;4991280;23;20028;-76
2021/12/08 10:16:54;;;;;;;5.95;3.05;;;5.70;99.90;;;;;;5013056;23;20093;-74
2021/12/08 10:18:56;;;;;;;16.08;4.25;;;5.80;99.90;;;;;;4991301;23;20026;-79
2021/12/08 10:20:57;;;;;;;8.70;3.42;;;5.80;99.90;;;;;;4991073;23;20035;-80
2021/12/08 10:23:18;;;;;;;9.88;4.55;;;5.80;99.90;;;;;;4988443;23;20015;-81
2021/12/08 10:25:22;;;;;;;9.95;3.28;;;5.80;99.90;;;;;;4991104;23;20634;-80
2021/12/08 10:27:24;;;;;;;9.80;3.55;;;5.80;99.90;;;;;;5012977;23;20042;-80
2021/12/08 10:29:27;;;;;;;12.63;4.22;;;5.90;99.90;;;;;;4991779;23;20015;-81
2021/12/08 10:31:32;;;;;;;4.95;3.53;;;6.00;99.90;;;;;;4991400;23;20078;-79
2021/12/08 10:34:08;;;;;;;10.82;2.78;;;6.10;99.90;;;;;;4990811;23;20015;-81
2021/12/08 10:36:23;;;;;;;8.02;3.38;;;6.20;99.90;;;;;;4990578;23;20101;-78
2021/12/08 10:38:37;;;;;;;9.30;4.13;;;6.20;99.90;;;;;;4991310;23;20114;-79
2021/12/08 10:40:38;;;;;;;6.65;4.07;;;6.20;99.90;;;;;;4991517;23;20019;-81
2021/12/08 10:42:39;;;;;;;9.45;3.47;;;6.30;99.90;;;;;;4990718;23;20444;-79
2021/12/08 10:44:49;;;;;;;7.20;4.53;;;6.30;99.90;;;;;;4991469;23;20025;-78
2021/12/08 10:46:54;;;;;;;8.23;3.40;;;6.50;99.90;;;;;;5012995;23;20363;-78
2021/12/08 10:49:13;;;;;;;9.15;3.70;;;7.00;99.90;;;;;;4991353;23;20040;-79
2021/12/08 10:56:08;;;;;;;6.22;3.42;;;8.40;99.90;;;;;;4991165;23;20026;-79
2021/12/08 10:58:20;;;;;;;8.48;2.70;;;8.70;99.90;;;;;;4990641;23;20019;-79
2021/12/08 11:00:30;;;;;;;11.32;5.78;;;8.70;99.90;;;;;;4989238;23;20050;-79
2021/12/08 11:02:44;;;;;;;9.63;4.57;;;8.80;99.90;;;;;;4990669;23;20441;-78
2021/12/08 11:04:45;;;;;;;6.20;3.05;;;8.90;99.90;;;;;;4990807;23;20671;-79
2021/12/08 11:06:47;;;;;;;6.65;2.97;;;9.20;99.90;;;;;;5012832;23;20725;-78
2021/12/08 11:08:51;;;;;;;9.30;3.45;;;9.50;99.90;;;;;;4991557;23;20015;-78
2021/12/08 11:10:57;;;;;;;10.57;3.55;;;9.40;99.90;;;;;;4990217;23;20015;-78
2021/12/08 11:12:58;;;;;;;6.65;2.67;;;9.30;99.90;;;;;;4991201;23;20310;-79
2021/12/08 11:14:59;;;;;;;8.02;3.90;;;9.00;99.90;;;;;;4989912;23;20011;-78
2021/12/08 11:16:59;;;;;;;8.75;3.03;;;9.00;99.90;;;;;;5012760;23;20347;-79
2021/12/08 11:19:10;;;;;;;8.02;3.33;;;8.90;99.90;;;;;;4990082;23;20102;-78
2021/12/08 11:21:35;;;;;;;11.77;5.72;;;8.70;99.90;;;;;;4991084;23;20008;-77
2021/12/08 11:23:47;;;;;;;10.32;3.30;;;8.60;99.90;;;;;;4990849;23;20475;-80
2021/12/08 11:25:50;;;;;;;6.13;3.28;;;8.60;99.90;;;;;;4990449;23;20444;-78
2021/12/08 11:27:51;;;;;;;11.73;3.28;;;8.80;99.90;;;;;;4990979;23;20489;-79
2021/12/08 11:29:51;;;;;;;4.28;2.80;;;9.10;99.90;;;;;;5013425;23;20011;-80
2021/12/08 11:31:56;;;;;;;10.00;3.35;;;9.30;99.90;;;;;;4990883;23;20050;-79
2021/12/08 11:34:04;;;;;;;9.25;3.90;;;9.30;99.90;;;;;;5013731;23;20043;-80
2021/12/08 11:36:20;;;;;;;7.82;3.00;;;9.10;99.90;;;;;;4991122;23;20070;-77
2021/12/08 11:38:25;;;;;;;8.50;3.45;;;9.00;99.90;;;;;;5012836;23;20042;-78